Time;durP1;ratioP1;P1;durP2;ratioP2;P2;SDS_P1;SDS_P2;PMS_P1;PMS_P2;Temp;Humidity;BMP_temperature;BMP_pressure;BME280_temperature;BME280_humidity;BME280_pressure;Samples;Min_cycle;Max_cycle;Signal;HPM_P1;HPM_P2
2023/06/01 00:02:03;;;;;;;7.60;5.27;;;;;;;;;;4971591;28;20248;-85
2023/06/01 00:04:28;;;;;;;7.03;5.17;;;;;;;;;;4996346;28;20228;-86
2023/06/01 00:06:54;;;;;;;8.10;5.37;;;;;;;;;;4977807;28;20706;-82
2023/06/01 00:09:20;;;;;;;9.60;5.30;;;;;;;;;;4998110;28;20279;-83
2023/06/01 00:11:45;;;;;;;6.30;4.93;;;;;;;;;;4987055;28;20228;-83
2023/06/01 00:14:11;;;;;;;6.90;5.33;;;;;;;;;;4977712;28;20217;-85
2023/06/01 00:16:36;;;;;;;8.03;5.43;;;;;;;;;;4978908;28;20278;-82
2023/06/01 00:19:04;;;;;;;8.23;5.53;;;;;;;;;;4985989;28;20228;-84
2023/06/01 00:21:32;;;;;;;8.93;5.33;;;;;;;;;;4978458;28;20876;-84
2023/06/01 00:23:58;;;;;;;9.20;5.43;;;;;;;;;;4991716;28;20247;-84
2023/06/01 00:26:31;;;;;;;7.73;5.60;;;;;;;;;;4988605;28;20229;-84
2023/06/01 00:29:01;;;;;;;8.63;5.50;;;;;;;;;;4973536;28;20226;-83
2023/06/01 00:31:27;;;;;;;7.47;5.03;;;;;;;;;;4973559;28;20225;-87
2023/06/01 00:33:53;;;;;;;10.27;5.70;;;;;;;;;;4980809;28;20221;-85
2023/06/01 00:36:21;;;;;;;7.27;5.37;;;;;;;;;;4968708;28;20224;-85
2023/06/01 00:38:47;;;;;;;6.77;5.23;;;;;;;;;;4995070;28;20214;-86
2023/06/01 00:41:12;;;;;;;5.70;5.13;;;;;;;;;;4962868;28;20584;-84
2023/06/01 00:43:42;;;;;;;10.30;6.20;;;;;;;;;;4980892;28;20232;-84
2023/06/01 00:46:08;;;;;;;7.60;5.37;;;;;;;;;;4962845;28;20233;-84
2023/06/01 00:48:35;;;;;;;8.60;5.60;;;;;;;;;;4978532;28;20254;-85
2023/06/01 00:51:03;;;;;;;7.70;5.87;;;;;;;;;;4993301;28;20252;-85
2023/06/01 00:53:28;;;;;;;6.97;5.57;;;;;;;;;;4983517;28;20312;-80
2023/06/01 00:55:59;;;;;;;7.47;5.20;;;;;;;;;;4967256;28;20321;-83
2023/06/01 00:58:25;;;;;;;8.30;5.20;;;;;;;;;;4980092;28;20224;-86
2023/06/01 01:00:53;;;;;;;8.70;5.60;;;;;;;;;;4962520;28;20721;-84
2023/06/01 01:03:25;;;;;;;6.10;5.27;;;;;;;;;;4970156;28;20216;-86
2023/06/01 01:05:57;;;;;;;7.80;5.37;;;;;;;;;;4973057;28;20233;-83
2023/06/01 01:08:31;;;;;;;8.37;5.77;;;;;;;;;;4992605;28;20220;-82
2023/06/01 01:11:10;;;;;;;7.90;5.60;;;;;;;;;;4985506;28;20833;-84
2023/06/01 01:13:50;;;;;;;6.20;5.60;;;;;;;;;;4992706;28;20235;-85
2023/06/01 01:16:30;;;;;;;12.23;5.97;;;;;;;;;;4971615;28;20295;-82
2023/06/01 01:19:34;;;;;;;11.50;5.93;;;;;;;;;;4996986;28;20225;-85
2023/06/01 01:22:20;;;;;;;9.10;6.17;;;;;;;;;;4988907;28;20221;-85
2023/06/01 01:25:20;;;;;;;7.87;5.87;;;;;;;;;;4997548;28;20225;-86
2023/06/01 01:28:32;;;;;;;8.93;5.67;;;;;;;;;;5000907;28;20220;-87
2023/06/01 01:31:00;;;;;;;8.07;5.63;;;;;;;;;;4940519;28;20265;-85
2023/06/01 01:33:26;;;;;;;8.20;5.50;;;;;;;;;;4953699;28;20858;-88
2023/06/01 01:35:52;;;;;;;8.27;5.23;;;;;;;;;;4970724;28;20225;-85
2023/06/01 01:38:17;;;;;;;6.50;5.67;;;;;;;;;;4964566;28;20214;-86
2023/06/01 01:40:43;;;;;;;8.27;6.17;;;;;;;;;;4991303;28;20226;-86
2023/06/01 01:43:09;;;;;;;6.77;5.87;;;;;;;;;;4998473;28;20225;-84
2023/06/01 01:45:36;;;;;;;9.03;6.10;;;;;;;;;;4985510;28;20279;-84
2023/06/01 01:48:18;;;;;;;8.43;6.47;;;;;;;;;;4977316;28;20221;-82
2023/06/01 01:51:08;;;;;;;9.57;6.30;;;;;;;;;;4981074;28;20724;-85
2023/06/01 01:53:39;;;;;;;8.70;6.57;;;;;;;;;;4977131;28;20220;-84
2023/06/01 01:56:05;;;;;;;8.80;7.00;;;;;;;;;;4965618;28;20232;-86
2023/06/01 01:58:31;;;;;;;8.33;6.37;;;;;;;;;;4966893;28;20279;-83
2023/06/01 02:00:56;;;;;;;7.93;6.23;;;;;;;;;;4958128;28;20906;-87
2023/06/01 02:03:24;;;;;;;6.57;5.70;;;;;;;;;;4996970;28;20241;-86
2023/06/01 02:05:50;;;;;;;6.80;5.60;;;;;;;;;;4965437;28;20615;-84
2023/06/01 02:08:16;;;;;;;6.70;5.00;;;;;;;;;;4974707;28;20288;-86
2023/06/01 02:10:43;;;;;;;6.07;5.47;;;;;;;;;;4999530;28;20226;-85
2023/06/01 02:13:11;;;;;;;6.43;5.57;;;;;;;;;;4977230;28;20273;-85
2023/06/01 02:15:39;;;;;;;8.37;4.97;;;;;;;;;;4963884;28;20237;-83
2023/06/01 02:18:05;;;;;;;5.70;5.17;;;;;;;;;;4979875;28;20237;-84
2023/06/01 02:20:32;;;;;;;6.47;5.50;;;;;;;;;;4970871;28;20690;-85
2023/06/01 02:23:01;;;;;;;7.60;5.17;;;;;;;;;;4991556;28;20235;-83
2023/06/01 02:25:28;;;;;;;5.50;5.00;;;;;;;;;;4973342;28;20341;-85
2023/06/01 02:27:54;;;;;;;6.40;4.87;;;;;;;;;;4999116;28;20606;-88
2023/06/01 02:30:20;;;;;;;6.07;4.83;;;;;;;;;;4991307;28;20624;-85
2023/06/01 02:32:50;;;;;;;6.00;4.90;;;;;;;;;;4970760;28;20227;-83
2023/06/01 02:35:18;;;;;;;5.87;4.63;;;;;;;;;;4984572;28;20225;-84
2023/06/01 02:37:43;;;;;;;6.07;4.90;;;;;;;;;;4983622;28;20222;-84
2023/06/01 02:40:15;;;;;;;7.40;4.90;;;;;;;;;;4998289;28;20213;-85
2023/06/01 02:42:43;;;;;;;6.97;4.63;;;;;;;;;;4976240;28;20228;-86
2023/06/01 02:45:11;;;;;;;8.80;5.10;;;;;;;;;;4979793;28;20229;-85
2023/06/01 02:47:36;;;;;;;7.03;5.20;;;;;;;;;;4980497;28;20296;-84
2023/06/01 02:50:04;;;;;;;6.80;5.57;;;;;;;;;;4979905;28;20267;-84
2023/06/01 02:52:31;;;;;;;6.57;5.17;;;;;;;;;;4995241;28;20317;-84
2023/06/01 02:55:01;;;;;;;6.97;5.73;;;;;;;;;;5009130;28;20233;-86
2023/06/01 02:57:46;;;;;;;8.07;5.50;;;;;;;;;;4983220;28;20309;-82
2023/06/01 03:00:18;;;;;;;7.50;5.87;;;;;;;;;;5014463;28;20725;-84
2023/06/01 03:02:52;;;;;;;8.73;5.57;;;;;;;;;;4985704;28;20972;-85
2023/06/01 03:05:21;;;;;;;9.07;5.33;;;;;;;;;;4964050;28;20222;-82
2023/06/01 03:08:00;;;;;;;8.37;5.13;;;;;;;;;;4963975;28;20213;-85
2023/06/01 03:10:26;;;;;;;9.50;5.40;;;;;;;;;;4963975;28;20946;-83
2023/06/01 03:12:51;;;;;;;8.37;5.53;;;;;;;;;;5021673;28;20311;-86
2023/06/01 03:15:17;;;;;;;7.47;5.80;;;;;;;;;;4963189;28;20225;-85
2023/06/01 03:17:49;;;;;;;8.67;6.13;;;;;;;;;;4978215;28;20599;-84
2023/06/01 03:20:17;;;;;;;9.73;6.07;;;;;;;;;;4979987;28;20229;-85
2023/06/01 03:22:43;;;;;;;9.87;6.03;;;;;;;;;;4959997;28;20217;-86
2023/06/01 03:25:09;;;;;;;8.70;5.97;;;;;;;;;;4980252;28;20245;-87
2023/06/01 03:27:35;;;;;;;9.03;6.43;;;;;;;;;;4979684;28;20592;-84
2023/06/01 03:30:03;;;;;;;10.23;5.97;;;;;;;;;;5004791;28;20217;-85
2023/06/01 03:32:30;;;;;;;8.17;5.80;;;;;;;;;;4975363;28;20255;-84
2023/06/01 03:34:58;;;;;;;8.23;6.33;;;;;;;;;;4969192;28;20622;-83
2023/06/01 03:37:24;;;;;;;8.57;5.87;;;;;;;;;;5000425;28;20223;-83
2023/06/01 03:39:52;;;;;;;6.97;5.93;;;;;;;;;;5000131;28;20209;-83
2023/06/01 03:42:21;;;;;;;9.20;5.60;;;;;;;;;;4978284;28;20221;-84
2023/06/01 03:44:47;;;;;;;8.37;5.43;;;;;;;;;;4982563;28;20231;-84
2023/06/01 03:47:15;;;;;;;6.87;5.50;;;;;;;;;;4995537;28;20328;-79
2023/06/01 03:49:40;;;;;;;7.40;5.90;;;;;;;;;;4953747;28;20801;-80
2023/06/01 03:52:09;;;;;;;11.67;5.83;;;;;;;;;;4973109;28;20311;-81
2023/06/01 03:54:38;;;;;;;7.20;5.90;;;;;;;;;;4996483;28;20764;-81
2023/06/01 03:57:15;;;;;;;7.10;5.43;;;;;;;;;;4990928;28;20221;-81
2023/06/01 03:59:41;;;;;;;6.97;5.63;;;;;;;;;;4973983;28;20228;-80
2023/06/01 04:02:09;;;;;;;8.90;5.07;;;;;;;;;;4956608;28;20213;-79
2023/06/01 04:04:37;;;;;;;9.30;5.33;;;;;;;;;;4986083;28;20286;-79
2023/06/01 04:07:03;;;;;;;8.27;5.03;;;;;;;;;;4991945;28;20230;-79
2023/06/01 04:09:29;;;;;;;6.60;4.97;;;;;;;;;;4998859;28;20323;-81
2023/06/01 04:11:57;;;;;;;7.00;5.20;;;;;;;;;;4988312;28;20225;-79
2023/06/01 04:14:23;;;;;;;6.83;4.73;;;;;;;;;;4981909;28;20224;-79
2023/06/01 04:16:48;;;;;;;8.87;5.00;;;;;;;;;;4965748;28;20335;-81
2023/06/01 04:19:16;;;;;;;6.83;5.30;;;;;;;;;;5014696;28;20225;-79
2023/06/01 04:21:43;;;;;;;7.57;5.67;;;;;;;;;;5002362;28;20220;-80
2023/06/01 04:24:13;;;;;;;7.03;4.90;;;;;;;;;;5011710;28;20275;-81
2023/06/01 04:26:38;;;;;;;6.63;4.80;;;;;;;;;;4998190;28;20222;-79
2023/06/01 04:29:05;;;;;;;7.33;5.20;;;;;;;;;;4998681;28;20242;-82
2023/06/01 04:31:32;;;;;;;8.67;5.37;;;;;;;;;;4991495;28;20644;-82
2023/06/01 04:34:01;;;;;;;6.90;5.00;;;;;;;;;;4971444;28;20304;-81
2023/06/01 04:36:32;;;;;;;5.63;4.60;;;;;;;;;;4980799;28;20229;-80
2023/06/01 04:39:01;;;;;;;8.97;5.37;;;;;;;;;;4979002;28;20224;-78
2023/06/01 04:41:28;;;;;;;6.70;4.83;;;;;;;;;;4998646;28;20513;-80
2023/06/01 04:43:54;;;;;;;7.37;4.50;;;;;;;;;;5001987;28;20213;-81
2023/06/01 04:46:24;;;;;;;6.47;4.53;;;;;;;;;;4965035;28;20274;-81
2023/06/01 04:48:57;;;;;;;5.37;4.40;;;;;;;;;;4965094;28;20304;-81
2023/06/01 04:51:26;;;;;;;6.07;4.23;;;;;;;;;;5009728;28;20225;-80
2023/06/01 04:53:52;;;;;;;10.00;4.97;;;;;;;;;;4996363;28;20221;-78
2023/06/01 04:56:24;;;;;;;7.00;4.33;;;;;;;;;;4986438;28;20256;-80
2023/06/01 04:58:51;;;;;;;6.97;4.73;;;;;;;;;;4991457;28;20236;-80
2023/06/01 05:01:24;;;;;;;7.70;4.67;;;;;;;;;;4986411;28;20286;-80
2023/06/01 05:03:54;;;;;;;9.90;5.13;;;;;;;;;;4984153;28;20560;-80
2023/06/01 05:06:21;;;;;;;7.63;4.60;;;;;;;;;;4984312;28;20237;-80
2023/06/01 05:08:46;;;;;;;7.50;4.80;;;;;;;;;;5017666;28;20217;-78
2023/06/01 05:11:12;;;;;;;8.90;5.30;;;;;;;;;;4987368;28;20225;-77
2023/06/01 05:13:38;;;;;;;7.10;4.77;;;;;;;;;;4978780;28;20224;-79
2023/06/01 05:16:04;;;;;;;8.60;5.17;;;;;;;;;;4996534;28;20229;-80
2023/06/01 05:18:31;;;;;;;7.47;4.70;;;;;;;;;;5013186;28;20227;-81
2023/06/01 05:20:57;;;;;;;9.63;4.70;;;;;;;;;;5013053;28;20228;-79
2023/06/01 05:23:23;;;;;;;8.17;5.20;;;;;;;;;;4955768;28;20225;-80
2023/06/01 05:25:52;;;;;;;9.03;4.90;;;;;;;;;;4989803;28;20320;-79
2023/06/01 05:28:20;;;;;;;7.37;4.73;;;;;;;;;;4991840;28;20224;-81
2023/06/01 05:30:47;;;;;;;7.77;4.60;;;;;;;;;;4970599;28;20225;-81
2023/06/01 05:33:12;;;;;;;7.53;4.57;;;;;;;;;;5002304;28;20214;-80
2023/06/01 05:35:43;;;;;;;6.10;4.70;;;;;;;;;;4994542;28;20263;-79
2023/06/01 05:38:15;;;;;;;8.07;4.47;;;;;;;;;;4988999;28;20221;-79
2023/06/01 05:40:44;;;;;;;8.90;4.70;;;;;;;;;;4995162;28;20252;-79
2023/06/01 05:43:10;;;;;;;5.37;4.13;;;;;;;;;;5009168;28;20217;-79
2023/06/01 05:45:36;;;;;;;5.00;4.20;;;;;;;;;;5009038;28;21049;-79
2023/06/01 05:48:01;;;;;;;5.87;4.30;;;;;;;;;;4994565;28;20213;-82
2023/06/01 05:50:33;;;;;;;5.40;4.37;;;;;;;;;;4994392;28;20225;-81
2023/06/01 05:52:58;;;;;;;5.93;4.17;;;;;;;;;;5001811;28;20545;-78
2023/06/01 05:55:27;;;;;;;9.43;4.70;;;;;;;;;;4995228;28;20233;-77
2023/06/01 05:57:55;;;;;;;8.40;4.87;;;;;;;;;;4983745;28;20237;-80
2023/06/01 06:00:21;;;;;;;6.57;4.30;;;;;;;;;;4978652;28;20225;-79
2023/06/01 06:02:47;;;;;;;7.00;4.43;;;;;;;;;;4980156;28;20209;-78
2023/06/01 06:05:15;;;;;;;7.20;4.73;;;;;;;;;;5007730;28;20228;-80
2023/06/01 06:07:43;;;;;;;7.13;4.47;;;;;;;;;;5016875;28;20236;-77
2023/06/01 06:10:09;;;;;;;6.00;4.10;;;;;;;;;;4989412;28;20304;-77
2023/06/01 06:12:35;;;;;;;6.67;4.37;;;;;;;;;;5007018;28;20693;-78
2023/06/01 06:15:01;;;;;;;8.33;4.33;;;;;;;;;;5001262;28;20225;-81
2023/06/01 06:17:29;;;;;;;6.57;3.80;;;;;;;;;;5007170;28;20217;-80
2023/06/01 06:19:54;;;;;;;6.33;4.10;;;;;;;;;;4982239;28;20279;-80
2023/06/01 06:22:20;;;;;;;5.70;4.20;;;;;;;;;;4985713;28;20212;-78
2023/06/01 06:24:49;;;;;;;10.67;4.70;;;;;;;;;;4999236;28;20236;-79
2023/06/01 06:27:15;;;;;;;5.57;4.07;;;;;;;;;;4982652;28;20302;-78
2023/06/01 06:29:43;;;;;;;6.30;3.97;;;;;;;;;;4988317;28;20217;-77
2023/06/01 06:32:11;;;;;;;6.90;4.07;;;;;;;;;;5006932;28;20222;-78
2023/06/01 06:34:36;;;;;;;5.47;4.10;;;;;;;;;;5007245;28;20221;-78
2023/06/01 06:37:06;;;;;;;7.67;3.80;;;;;;;;;;5005625;28;20231;-80
2023/06/01 06:39:33;;;;;;;5.60;3.83;;;;;;;;;;4972784;28;20226;-83
2023/06/01 06:42:03;;;;;;;7.33;4.13;;;;;;;;;;4969906;28;20221;-82
2023/06/01 06:44:29;;;;;;;5.77;3.50;;;;;;;;;;4987292;28;20279;-79
2023/06/01 06:47:03;;;;;;;5.63;3.90;;;;;;;;;;4977059;28;20324;-81
2023/06/01 06:49:28;;;;;;;5.97;3.63;;;;;;;;;;4989096;28;20216;-79
2023/06/01 06:51:56;;;;;;;5.60;3.70;;;;;;;;;;4977149;28;20228;-81
2023/06/01 06:54:22;;;;;;;6.67;3.60;;;;;;;;;;5003555;28;20221;-77
2023/06/01 06:56:48;;;;;;;7.10;4.10;;;;;;;;;;4978532;28;20232;-78
2023/06/01 06:59:14;;;;;;;6.60;3.57;;;;;;;;;;5001487;28;20232;-77
2023/06/01 07:01:40;;;;;;;7.17;3.83;;;;;;;;;;4962736;28;20279;-77
2023/06/01 07:04:06;;;;;;;5.93;3.50;;;;;;;;;;5008256;28;20255;-79
2023/06/01 07:06:34;;;;;;;4.57;3.73;;;;;;;;;;5010888;28;20970;-80
2023/06/01 07:09:00;;;;;;;4.70;3.20;;;;;;;;;;4993208;28;20228;-78
2023/06/01 07:11:26;;;;;;;6.40;3.67;;;;;;;;;;5002035;28;20220;-78
2023/06/01 07:13:57;;;;;;;4.17;2.90;;;;;;;;;;5000604;28;20222;-80
2023/06/01 07:16:24;;;;;;;8.00;3.80;;;;;;;;;;5007523;28;20299;-78
2023/06/01 07:18:51;;;;;;;6.15;3.72;;;;;;;;;;4977190;28;20659;-77
2023/06/01 07:21:16;;;;;;;7.63;3.60;;;;;;;;;;5000837;28;20232;-79
2023/06/01 07:23:43;;;;;;;4.50;3.80;;;;;;;;;;5002128;28;20271;-80
2023/06/01 07:26:11;;;;;;;6.17;3.40;;;;;;;;;;4970405;28;20252;-80
2023/06/01 07:28:36;;;;;;;6.83;3.70;;;;;;;;;;5001609;28;20229;-77
2023/06/01 07:31:03;;;;;;;6.53;3.37;;;;;;;;;;4986949;28;20217;-81
2023/06/01 07:33:29;;;;;;;5.50;3.30;;;;;;;;;;4953431;28;20222;-81
2023/06/01 07:35:56;;;;;;;5.90;3.53;;;;;;;;;;5003658;28;20239;-82
2023/06/01 07:38:22;;;;;;;6.00;3.50;;;;;;;;;;5002577;28;20299;-77
2023/06/01 07:40:48;;;;;;;5.10;3.53;;;;;;;;;;4990944;28;20304;-77
2023/06/01 07:43:14;;;;;;;6.17;3.53;;;;;;;;;;4980059;28;20212;-77
2023/06/01 07:45:40;;;;;;;5.68;3.70;;;;;;;;;;4999468;28;20236;-77
2023/06/01 07:48:06;;;;;;;14.50;12.23;;;;;;;;;;5006394;28;20232;-76
2023/06/01 07:50:33;;;;;;;6.22;4.22;;;;;;;;;;4966701;28;20217;-78
2023/06/01 07:52:59;;;;;;;14.27;12.70;;;;;;;;;;4983298;28;20220;-79
2023/06/01 07:55:25;;;;;;;7.55;3.88;;;;;;;;;;5008019;28;20224;-78
2023/06/01 07:57:51;;;;;;;7.50;4.45;;;;;;;;;;4988593;28;20200;-78
2023/06/01 08:00:18;;;;;;;4.88;4.00;;;;;;;;;;5005453;28;20229;-77
2023/06/01 08:02:44;;;;;;;4.57;3.60;;;;;;;;;;4966713;28;20526;-77
2023/06/01 08:05:11;;;;;;;6.60;4.13;;;;;;;;;;5001337;28;20863;-79
2023/06/01 08:07:37;;;;;;;5.10;3.67;;;;;;;;;;4987425;28;20332;-78
2023/06/01 08:10:08;;;;;;;4.88;3.70;;;;;;;;;;4992400;28;20304;-78
2023/06/01 08:12:37;;;;;;;6.83;4.00;;;;;;;;;;4979507;28;20221;-78
2023/06/01 08:15:03;;;;;;;5.57;4.17;;;;;;;;;;4985572;28;20221;-79
2023/06/01 08:17:29;;;;;;;7.60;3.95;;;;;;;;;;4977632;28;20232;-78
2023/06/01 08:19:56;;;;;;;6.87;3.83;;;;;;;;;;4966725;28;20687;-78
2023/06/01 08:22:25;;;;;;;5.45;3.83;;;;;;;;;;4986986;28;20218;-78
2023/06/01 08:24:52;;;;;;;4.78;3.28;;;;;;;;;;5002706;28;20289;-77
2023/06/01 08:27:22;;;;;;;4.13;3.20;;;;;;;;;;4991769;28;20259;-77
2023/06/01 08:29:48;;;;;;;6.03;3.50;;;;;;;;;;5002151;28;20217;-76
2023/06/01 08:32:14;;;;;;;4.07;3.20;;;;;;;;;;4995514;28;20225;-77
2023/06/01 08:34:39;;;;;;;6.63;3.55;;;;;;;;;;5011236;28;20205;-76
2023/06/01 08:37:07;;;;;;;5.25;3.72;;;;;;;;;;4999198;28;20217;-77
2023/06/01 08:39:33;;;;;;;6.55;3.38;;;;;;;;;;4974227;28;20225;-81
2023/06/01 08:42:26;;;;;;;5.95;3.55;;;;;;;;;;5007233;28;20208;-78
2023/06/01 08:44:53;;;;;;;7.57;4.00;;;;;;;;;;5010919;28;20239;-77
2023/06/01 08:47:18;;;;;;;6.63;3.92;;;;;;;;;;5007380;28;20701;-77
2023/06/01 08:49:44;;;;;;;6.82;3.58;;;;;;;;;;4978731;28;20224;-78
2023/06/01 08:52:18;;;;;;;4.70;3.10;;;;;;;;;;4989496;28;20627;-79
2023/06/01 08:54:46;;;;;;;7.07;3.50;;;;;;;;;;4990687;28;20227;-81
2023/06/01 08:57:11;;;;;;;5.90;3.22;;;;;;;;;;4980235;28;20594;-81
2023/06/01 08:59:38;;;;;;;5.10;3.10;;;;;;;;;;4968371;28;20223;-79
2023/06/01 09:02:08;;;;;;;3.90;3.20;;;;;;;;;;4974665;28;20399;-78
2023/06/01 09:04:41;;;;;;;4.78;3.03;;;;;;;;;;4992288;28;21065;-79
2023/06/01 09:07:07;;;;;;;5.53;3.30;;;;;;;;;;4988787;28;20352;-78
2023/06/01 09:09:35;;;;;;;6.55;3.25;;;;;;;;;;4983653;28;20303;-80
2023/06/01 09:12:19;;;;;;;4.22;3.10;;;;;;;;;;4990907;28;20848;-81
2023/06/01 09:14:44;;;;;;;4.82;2.85;;;;;;;;;;4999992;28;20224;-81
2023/06/01 09:17:14;;;;;;;5.07;3.15;;;;;;;;;;4975339;28;20220;-81
2023/06/01 09:19:46;;;;;;;3.50;2.50;;;;;;;;;;4985200;28;20220;-79
2023/06/01 09:22:12;;;;;;;4.32;2.70;;;;;;;;;;4989404;28;20300;-78
2023/06/01 09:24:40;;;;;;;5.05;2.65;;;;;;;;;;5006086;28;20225;-78
2023/06/01 09:27:06;;;;;;;6.65;3.03;;;;;;;;;;5001334;28;20234;-79
2023/06/01 09:29:32;;;;;;;4.53;2.55;;;;;;;;;;4988228;28;20296;-79
2023/06/01 09:32:01;;;;;;;3.42;2.90;;;;;;;;;;4996840;28;20209;-81
2023/06/01 09:34:26;;;;;;;5.38;3.03;;;;;;;;;;4994484;28;20232;-79
2023/06/01 09:36:53;;;;;;;4.47;2.95;;;;;;;;;;4982415;28;20225;-80
2023/06/01 09:39:26;;;;;;;3.63;2.97;;;;;;;;;;4994387;28;20229;-80
2023/06/01 09:42:06;;;;;;;4.80;2.97;;;;;;;;;;4994632;28;20217;-79
2023/06/01 09:44:40;;;;;;;4.00;2.60;;;;;;;;;;4986841;28;20220;-80
2023/06/01 09:47:13;;;;;;;4.40;2.60;;;;;;;;;;4996429;28;20232;-81
2023/06/01 09:49:41;;;;;;;4.18;2.63;;;;;;;;;;4974919;28;20314;-80
2023/06/01 09:52:14;;;;;;;5.57;2.70;;;;;;;;;;4985244;28;20245;-79
2023/06/01 09:54:54;;;;;;;3.60;2.67;;;;;;;;;;4979756;28;20209;-80
2023/06/01 09:57:28;;;;;;;5.03;2.75;;;;;;;;;;4971905;28;20307;-83
2023/06/01 09:59:54;;;;;;;4.93;2.90;;;;;;;;;;4990140;28;20280;-80
2023/06/01 10:02:23;;;;;;;3.83;2.63;;;;;;;;;;4999110;28;20220;-81
2023/06/01 10:04:58;;;;;;;4.68;3.13;;;;;;;;;;5003455;23;20666;-75
2023/06/01 10:07:26;;;;;;;4.13;2.85;;;;;;;;;;4959684;28;20228;-74
2023/06/01 10:09:54;;;;;;;3.72;2.80;;;;;;;;;;4973727;28;20240;-74
2023/06/01 10:12:22;;;;;;;3.75;2.70;;;;;;;;;;4956821;28;20277;-75
2023/06/01 10:14:48;;;;;;;3.67;2.50;;;;;;;;;;4957608;28;20221;-75
2023/06/01 10:17:17;;;;;;;4.20;3.08;;;;;;;;;;4943337;28;20229;-74
2023/06/01 10:19:43;;;;;;;4.28;2.80;;;;;;;;;;4971035;28;20225;-74
2023/06/01 10:22:11;;;;;;;4.60;2.70;;;;;;;;;;4986555;28;20222;-74
2023/06/01 10:24:42;;;;;;;4.82;2.70;;;;;;;;;;4976605;28;20222;-74
2023/06/01 10:27:34;;;;;;;3.63;2.42;;;;;;;;;;4956781;28;20317;-74
2023/06/01 10:29:59;;;;;;;4.07;2.60;;;;;;;;;;4970405;28;20216;-73
2023/06/01 10:32:40;;;;;;;7.00;2.80;;;;;;;;;;4975384;28;20434;-72
2023/06/01 10:35:07;;;;;;;3.25;2.60;;;;;;;;;;5007375;28;20232;-71
2023/06/01 10:37:40;;;;;;;2.45;2.25;;;;;;;;;;4971387;28;20765;-73
2023/06/01 10:40:14;;;;;;;4.55;2.90;;;;;;;;;;4993341;28;20706;-73
2023/06/01 10:42:40;;;;;;;5.00;2.97;;;;;;;;;;4966735;28;20220;-73
2023/06/01 10:45:06;;;;;;;4.03;2.55;;;;;;;;;;4959442;28;20686;-74
2023/06/01 10:47:35;;;;;;;4.80;2.65;;;;;;;;;;4945577;28;20315;-74
2023/06/01 10:50:00;;;;;;;3.08;2.53;;;;;;;;;;4981206;28;20671;-74
2023/06/01 10:52:28;;;;;;;4.10;2.40;;;;;;;;;;4975615;28;20231;-74
2023/06/01 10:54:54;;;;;;;4.15;2.63;;;;;;;;;;4985320;28;20746;-74
2023/06/01 10:57:24;;;;;;;2.53;2.30;;;;;;;;;;4966482;28;20240;-74
2023/06/01 11:00:14;;;;;;;5.35;2.58;;;;;;;;;;4969393;28;20209;-75
2023/06/01 11:02:48;;;;;;;3.50;2.40;;;;;;;;;;5001078;28;20251;-75
2023/06/01 11:05:51;;;;;;;4.20;2.30;;;;;;;;;;4989831;28;20761;-75
2023/06/01 11:08:20;;;;;;;2.85;2.15;;;;;;;;;;5005919;28;20232;-75
2023/06/01 11:10:53;;;;;;;4.05;2.53;;;;;;;;;;5007451;28;20560;-75
2023/06/01 11:13:19;;;;;;;2.65;1.98;;;;;;;;;;4981109;28;20228;-75
2023/06/01 11:16:06;;;;;;;3.53;2.20;;;;;;;;;;4976277;28;20220;-74
2023/06/01 11:18:59;;;;;;;3.47;2.30;;;;;;;;;;4999439;28;20251;-75
2023/06/01 11:21:37;;;;;;;4.85;2.25;;;;;;;;;;4991449;28;20221;-74
2023/06/01 11:24:12;;;;;;;4.20;2.22;;;;;;;;;;4996737;28;20303;-75
2023/06/01 11:26:40;;;;;;;3.67;2.13;;;;;;;;;;4997940;28;20226;-74
2023/06/01 11:29:13;;;;;;;5.35;2.85;;;;;;;;;;5007759;28;20220;-74
2023/06/01 11:31:45;;;;;;;5.82;2.65;;;;;;;;;;5015295;28;20221;-74
2023/06/01 11:34:18;;;;;;;4.32;3.00;;;;;;;;;;4991545;28;20223;-73
2023/06/01 11:36:50;;;;;;;3.75;2.78;;;;;;;;;;4975287;28;20228;-74
2023/06/01 11:39:17;;;;;;;7.75;2.85;;;;;;;;;;4989430;28;20726;-74
2023/06/01 11:41:44;;;;;;;4.18;2.63;;;;;;;;;;4991877;28;20221;-74
2023/06/01 11:44:12;;;;;;;4.32;2.53;;;;;;;;;;4988240;28;20217;-74
2023/06/01 11:46:50;;;;;;;5.82;2.78;;;;;;;;;;4974814;28;20220;-75
2023/06/01 11:49:16;;;;;;;5.38;2.50;;;;;;;;;;4974187;28;20228;-74
2023/06/01 11:51:44;;;;;;;4.68;2.53;;;;;;;;;;4991119;28;20221;-75
2023/06/01 11:54:12;;;;;;;4.32;2.50;;;;;;;;;;4989987;28;20224;-76
2023/06/01 11:56:40;;;;;;;5.47;2.63;;;;;;;;;;4990061;28;20283;-76
2023/06/01 11:59:13;;;;;;;3.72;2.45;;;;;;;;;;4975325;28;20307;-75
2023/06/01 12:01:42;;;;;;;3.65;2.38;;;;;;;;;;5006817;28;20212;-75
2023/06/01 12:04:17;;;;;;;3.25;2.13;;;;;;;;;;4990618;28;20231;-75
2023/06/01 12:06:44;;;;;;;3.78;2.42;;;;;;;;;;5007020;28;20228;-74
2023/06/01 12:09:12;;;;;;;4.95;2.45;;;;;;;;;;4989660;28;20267;-74
2023/06/01 12:11:44;;;;;;;4.72;2.28;;;;;;;;;;5007956;28;20227;-74
2023/06/01 12:14:12;;;;;;;6.15;3.00;;;;;;;;;;4989429;28;20699;-74
2023/06/01 12:16:54;;;;;;;4.97;3.28;;;;;;;;;;4989520;28;20279;-74
2023/06/01 12:19:21;;;;;;;4.95;2.50;;;;;;;;;;4987891;28;20225;-74
2023/06/01 12:21:49;;;;;;;5.07;3.42;;;;;;;;;;4990878;28;20634;-75
2023/06/01 12:24:14;;;;;;;6.75;4.85;;;;;;;;;;4987202;28;20214;-76
2023/06/01 12:26:43;;;;;;;7.53;4.35;;;;;;;;;;4990589;28;20512;-75
2023/06/01 12:29:13;;;;;;;3.25;2.60;;;;;;;;;;5004262;28;20224;-75
2023/06/01 12:31:39;;;;;;;5.68;2.88;;;;;;;;;;4988396;28;20690;-74
2023/06/01 12:34:14;;;;;;;5.32;2.70;;;;;;;;;;4988518;28;20216;-74
2023/06/01 12:36:40;;;;;;;4.60;3.00;;;;;;;;;;4988315;28;20327;-74
2023/06/01 12:39:10;;;;;;;4.88;3.63;;;;;;;;;;4986402;28;20268;-75
2023/06/01 12:41:38;;;;;;;5.75;3.10;;;;;;;;;;4988305;28;20477;-75
2023/06/01 12:44:04;;;;;;;3.65;2.50;;;;;;;;;;4974223;28;20229;-75
2023/06/01 12:46:33;;;;;;;3.90;2.92;;;;;;;;;;4969915;28;20700;-74
2023/06/01 12:49:12;;;;;;;4.70;2.97;;;;;;;;;;4953925;28;20619;-74
2023/06/01 12:51:38;;;;;;;8.90;3.00;;;;;;;;;;4983566;28;20702;-74
2023/06/01 12:54:03;;;;;;;3.90;2.50;;;;;;;;;;4990176;28;20220;-74
2023/06/01 12:56:29;;;;;;;4.38;3.42;;;;;;;;;;5006505;28;20216;-74
2023/06/01 12:58:55;;;;;;;5.10;3.83;;;;;;;;;;5006228;28;20726;-73
2023/06/01 13:01:20;;;;;;;4.68;3.17;;;;;;;;;;4987315;28;20229;-73
2023/06/01 13:03:51;;;;;;;4.25;2.60;;;;;;;;;;4988815;28;20208;-74
2023/06/01 13:06:21;;;;;;;4.15;2.40;;;;;;;;;;4988907;28;20241;-73
2023/06/01 13:08:52;;;;;;;3.72;2.60;;;;;;;;;;5008001;28;20225;-75
2023/06/01 13:11:17;;;;;;;4.55;2.70;;;;;;;;;;5007175;28;20216;-73
2023/06/01 13:13:43;;;;;;;3.83;2.65;;;;;;;;;;4962772;28;20224;-73
2023/06/01 13:16:14;;;;;;;3.10;2.47;;;;;;;;;;4993873;28;20204;-73
2023/06/01 13:18:39;;;;;;;5.20;2.80;;;;;;;;;;5009938;28;20221;-73
2023/06/01 13:21:05;;;;;;;4.20;2.40;;;;;;;;;;5009752;28;20220;-72
2023/06/01 13:23:33;;;;;;;4.30;2.70;;;;;;;;;;4991587;28;20233;-73
2023/06/01 13:25:58;;;;;;;4.20;2.20;;;;;;;;;;4994698;28;20232;-73
2023/06/01 13:28:27;;;;;;;4.22;2.35;;;;;;;;;;5009778;28;20227;-74
2023/06/01 13:30:54;;;;;;;3.22;2.30;;;;;;;;;;4994682;28;20241;-73
2023/06/01 13:33:20;;;;;;;3.72;2.72;;;;;;;;;;4978216;28;21039;-73
2023/06/01 13:35:48;;;;;;;5.88;3.35;;;;;;;;;;4992377;28;20259;-72
2023/06/01 13:38:13;;;;;;;3.17;2.20;;;;;;;;;;4982436;28;20225;-74
2023/06/01 13:40:41;;;;;;;4.20;2.53;;;;;;;;;;5010752;28;20594;-73
2023/06/01 13:43:12;;;;;;;4.28;2.50;;;;;;;;;;4992927;28;20228;-72
2023/06/01 13:45:42;;;;;;;3.50;2.22;;;;;;;;;;5018109;28;20711;-73
2023/06/01 13:48:10;;;;;;;4.75;2.42;;;;;;;;;;4977645;28;20221;-73
2023/06/01 13:50:40;;;;;;;4.57;2.60;;;;;;;;;;4991819;28;20213;-73
2023/06/01 13:53:06;;;;;;;5.35;2.25;;;;;;;;;;4991773;28;20268;-74
2023/06/01 13:55:31;;;;;;;5.30;2.22;;;;;;;;;;5007908;28;20210;-71
2023/06/01 13:58:02;;;;;;;3.03;2.05;;;;;;;;;;5008361;28;20248;-72
2023/06/01 14:00:28;;;;;;;6.35;2.67;;;;;;;;;;4957699;28;20683;-74
2023/06/01 14:02:56;;;;;;;7.13;2.90;;;;;;;;;;4981186;28;20220;-73
2023/06/01 14:05:24;;;;;;;6.32;2.60;;;;;;;;;;4951748;28;20598;-73
2023/06/01 14:07:50;;;;;;;5.03;2.30;;;;;;;;;;4959220;28;20237;-73
2023/06/01 14:10:17;;;;;;;4.32;2.65;;;;;;;;;;4946105;28;21103;-75
2023/06/01 14:12:45;;;;;;;4.90;2.22;;;;;;;;;;5005716;28;20291;-75
2023/06/01 14:15:10;;;;;;;3.67;2.42;;;;;;;;;;4976073;28;20236;-75
2023/06/01 14:17:36;;;;;;;5.18;2.25;;;;;;;;;;4966467;28;20765;-76
2023/06/01 14:20:01;;;;;;;6.10;2.55;;;;;;;;;;4957212;28;20210;-73
2023/06/01 14:22:29;;;;;;;5.07;2.63;;;;;;;;;;4972762;28;20307;-74
2023/06/01 14:24:55;;;;;;;3.42;2.20;;;;;;;;;;4979652;28;20216;-73
2023/06/01 14:27:20;;;;;;;3.28;2.10;;;;;;;;;;4975924;28;20310;-74
2023/06/01 14:29:48;;;;;;;5.18;2.15;;;;;;;;;;5002196;28;20250;-73
2023/06/01 14:32:13;;;;;;;4.30;2.45;;;;;;;;;;5019101;28;20283;-72
2023/06/01 14:34:39;;;;;;;5.28;2.40;;;;;;;;;;5015919;28;20213;-74
2023/06/01 14:37:10;;;;;;;5.88;2.45;;;;;;;;;;4991956;28;20217;-73
2023/06/01 14:39:36;;;;;;;6.28;2.40;;;;;;;;;;5021294;28;20229;-72
2023/06/01 14:42:01;;;;;;;4.05;2.50;;;;;;;;;;4991349;28;20275;-71
2023/06/01 14:44:27;;;;;;;3.53;2.13;;;;;;;;;;5008601;28;20714;-72
2023/06/01 14:46:57;;;;;;;3.75;2.20;;;;;;;;;;5009273;28;20768;-73
2023/06/01 14:49:22;;;;;;;4.68;2.47;;;;;;;;;;4999021;28;20231;-72
2023/06/01 14:51:48;;;;;;;3.20;2.03;;;;;;;;;;5007967;28;20224;-72
2023/06/01 14:54:18;;;;;;;5.50;2.10;;;;;;;;;;5009771;28;20221;-73